Startpagina
METAR-TAF:

METAR-TAF

Vliegvelden :

Luchthaven Prins Said Ibrahim

Moroni, Comoren

breedte: 11-32S, lengte: 043-16E, hoogte: 29 m

Actueel weer

Dit bericht is 12 minuten geleden gemaakt, om 15:00 UTC
Wind 7 kt uit het zuidoosten
Temperatuur 27°C
Vochtigheid 62%
Druk 1017 hPa
Zicht 10 km of meer
Weinig wolken op 2000 ft

METAR: FMCH 191500Z 14007KT 9999 FEW020 27/19 Q1017 NOSIG

Tijdstip: 18:12 (15:12 UTC)

Verwachting

Dit bericht is 4 uur en het 12 minuten geleden gemaakt, om 11:00 UTC
Verwachting geldig van 19 om 12 UTC tot 20 om 18 UTC
Wind 12 kt uit het zuiden
Zicht 10 km of meer
Weinig wolken op 2000 ft
Verspreide wolken op 3000 ft
Wijzigt naar
van 19 om 16 UTC tot 19 om 18 UTC
Wind 2 kt uit variabele richting
Wijzigt naar
van 20 om 05 UTC tot 20 om 07 UTC
Wind 10 kt uit het zuidzuidoosten

TAF: FMCH 191100Z 1912/2018 19012KT 9999 FEW020 SCT030 BECMG 1916/1918 VRB02KT BECMG 2005/2007 16010KT

Waarnemingen en weersverwachtingen van meer dan 4000 vliegvelden (METAR en TAF).

De beschikbare stations zijn de gele en rode punten op de kaart.

Ga met uw muis naar het station om de naam te zien.

Klik dan om waarnemingen en weersverwachtingen te zien.

kaart wijzigen: klik op de groene knoppen met een zwart kruis om in te zoomen, op de groene knop met een streepje om uit te zoomen of op de groene pijlen voor aangrenzende kaarten.


METAR-TAF: